createdAt,value
2018-12-26T00:00:41.746Z,1007.82
2018-12-26T00:01:41.815Z,1007.84
2018-12-26T00:02:41.800Z,1007.86
2018-12-26T00:03:41.710Z,1007.89
2018-12-26T00:04:41.709Z,1007.9
2018-12-26T00:05:41.815Z,1007.94
2018-12-26T00:06:41.687Z,1007.95
2018-12-26T00:07:41.669Z,1007.95
2018-12-26T00:08:41.656Z,1007.93
2018-12-26T00:09:41.648Z,1007.93
2018-12-26T00:10:41.636Z,1007.94
2018-12-26T00:11:41.627Z,1007.98
2018-12-26T00:12:41.615Z,1007.95
2018-12-26T00:13:41.605Z,1007.95
2018-12-26T00:14:41.597Z,1007.97
2018-12-26T00:15:41.592Z,1007.94
2018-12-26T00:16:41.581Z,1007.94
2018-12-26T00:17:41.565Z,1008
2018-12-26T00:18:41.594Z,1008
2018-12-26T00:19:41.645Z,1007.99
2018-12-26T00:20:41.528Z,1007.99
2018-12-26T00:21:41.520Z,1008.02
2018-12-26T00:22:41.513Z,1007.99
2018-12-26T00:23:41.501Z,1008.01
2018-12-26T00:24:41.489Z,1008
2018-12-26T00:25:41.481Z,1008.01
2018-12-26T00:26:41.475Z,1007.95
2018-12-26T00:27:41.464Z,1007.99
2018-12-26T00:28:41.445Z,1007.9
2018-12-26T00:29:41.438Z,1007.86
2018-12-26T00:30:41.427Z,1007.82
2018-12-26T00:31:41.420Z,1007.84
2018-12-26T00:32:41.419Z,1007.91
2018-12-26T00:33:41.393Z,1007.89
2018-12-26T00:34:41.384Z,1007.87
2018-12-26T00:35:41.373Z,1007.86
2018-12-26T00:36:41.370Z,1007.89
2018-12-26T00:37:41.362Z,1007.92
2018-12-26T00:38:41.362Z,1007.92
2018-12-26T00:39:41.331Z,1007.91
2018-12-26T00:40:41.321Z,1007.91
2018-12-26T00:41:41.308Z,1007.89
2018-12-26T00:42:41.298Z,1007.87
2018-12-26T00:43:41.290Z,1007.86
2018-12-26T00:44:41.279Z,1007.84
2018-12-26T00:45:41.277Z,1007.81
2018-12-26T00:46:41.286Z,1007.8
2018-12-26T00:47:41.246Z,1007.78
2018-12-26T00:48:41.243Z,1007.81
2018-12-26T00:49:41.240Z,1007.78
2018-12-26T00:50:41.223Z,1007.7
2018-12-26T00:51:41.217Z,1007.71
2018-12-26T00:52:41.191Z,1007.69
2018-12-26T00:53:41.184Z,1007.73
2018-12-26T00:54:41.170Z,1007.68
2018-12-26T00:55:41.161Z,1007.68
2018-12-26T00:56:41.148Z,1007.69
2018-12-26T00:57:41.137Z,1007.66
2018-12-26T00:58:41.132Z,1007.69
2018-12-26T00:59:41.115Z,1007.67
2018-12-26T01:00:41.111Z,1007.72
2018-12-26T01:01:41.094Z,1007.72
2018-12-26T01:02:41.085Z,1007.71
2018-12-26T01:03:41.078Z,1007.73
2018-12-26T01:04:41.063Z,1007.72
2018-12-26T01:05:41.061Z,1007.74
2018-12-26T01:06:41.037Z,1007.72
2018-12-26T01:07:41.029Z,1007.71
2018-12-26T01:08:41.016Z,1007.71
2018-12-26T01:09:41.009Z,1007.71
2018-12-26T01:10:40.999Z,1007.7
2018-12-26T01:11:40.985Z,1007.68
2018-12-26T01:12:40.972Z,1007.66
2018-12-26T01:13:40.962Z,1007.63
2018-12-26T01:14:40.953Z,1007.6
2018-12-26T01:15:40.949Z,1007.63
2018-12-26T01:16:40.930Z,1007.57
2018-12-26T01:17:40.923Z,1007.59
2018-12-26T01:18:40.920Z,1007.55
2018-12-26T01:19:40.895Z,1007.54
2018-12-26T01:20:40.890Z,1007.58
2018-12-26T01:21:40.877Z,1007.54
2018-12-26T01:22:40.868Z,1007.56
2018-12-26T01:23:40.862Z,1007.59
2018-12-26T01:24:40.841Z,1007.56
2018-12-26T01:25:40.833Z,1007.53
2018-12-26T01:26:40.819Z,1007.5
2018-12-26T01:27:40.805Z,1007.53
2018-12-26T01:28:40.796Z,1007.53
2018-12-26T01:29:40.784Z,1007.53
2018-12-26T01:30:40.774Z,1007.53
2018-12-26T01:31:40.763Z,1007.54
2018-12-26T01:32:40.751Z,1007.5
2018-12-26T01:33:40.756Z,1007.52
2018-12-26T01:34:40.730Z,1007.56
2018-12-26T01:35:41.270Z,1007.56
2018-12-26T01:36:40.704Z,1007.55
2018-12-26T01:37:40.703Z,1007.54
2018-12-26T01:38:40.686Z,1007.51
2018-12-26T01:39:40.676Z,1007.46
2018-12-26T01:40:40.662Z,1007.49
2018-12-26T01:41:40.650Z,1007.44
2018-12-26T01:42:40.641Z,1007.47
2018-12-26T01:43:40.626Z,1007.46
2018-12-26T01:44:40.636Z,1007.45
2018-12-26T01:45:40.605Z,1007.41
2018-12-26T01:46:40.593Z,1007.4
2018-12-26T01:47:40.582Z,1007.36
2018-12-26T01:48:40.570Z,1007.38
2018-12-26T01:49:40.566Z,1007.38
2018-12-26T01:50:40.550Z,1007.33
2018-12-26T01:51:40.536Z,1007.33
2018-12-26T01:52:40.527Z,1007.27
2018-12-26T01:53:40.514Z,1007.23
2018-12-26T01:54:40.512Z,1007.19
2018-12-26T01:55:40.489Z,1007.21
2018-12-26T01:56:40.477Z,1007.19
2018-12-26T01:57:40.464Z,1007.17
2018-12-26T01:58:40.469Z,1007.19
2018-12-26T01:59:40.464Z,1007.21
2018-12-26T02:00:40.432Z,1007.26
2018-12-26T02:01:40.420Z,1007.22
2018-12-26T02:02:40.406Z,1007.26
2018-12-26T02:03:40.396Z,1007.28
2018-12-26T02:04:40.395Z,1007.25
2018-12-26T02:05:40.371Z,1007.21
2018-12-26T02:06:40.366Z,1007.15
2018-12-26T02:07:40.347Z,1007.19
2018-12-26T02:08:40.336Z,1007.16
2018-12-26T02:09:40.325Z,1007.19
2018-12-26T02:10:40.320Z,1007.21
2018-12-26T02:11:40.301Z,1007.2
2018-12-26T02:12:40.290Z,1007.13
2018-12-26T02:13:40.280Z,1007.12
2018-12-26T02:14:40.269Z,1007.08
2018-12-26T02:15:40.258Z,1007.01
2018-12-26T02:16:40.264Z,1006.99
2018-12-26T02:17:40.252Z,1006.97
2018-12-26T02:18:40.224Z,1006.94
2018-12-26T02:19:40.224Z,1006.98
2018-12-26T02:20:40.200Z,1006.93
2018-12-26T02:21:41.544Z,1006.97
2018-12-26T02:22:40.175Z,1006.9
2018-12-26T02:23:40.170Z,1006.97
2018-12-26T02:24:40.147Z,1007.01
2018-12-26T02:25:40.140Z,1007.03
2018-12-26T02:26:40.125Z,1007.01
2018-12-26T02:27:40.110Z,1007.05
2018-12-26T02:28:40.102Z,1007.11
2018-12-26T02:29:40.088Z,1007.13
2018-12-26T02:30:40.083Z,1007.17
2018-12-26T02:31:40.098Z,1007.17
2018-12-26T02:32:40.054Z,1007.12
2018-12-26T02:33:40.074Z,1007.09
2018-12-26T02:34:40.029Z,1007.05
2018-12-26T02:35:40.023Z,1007.04
2018-12-26T02:36:40.003Z,1006.93
2018-12-26T02:37:40.010Z,1006.89
2018-12-26T02:38:39.987Z,1006.85
2018-12-26T02:39:39.967Z,1006.86
2018-12-26T02:40:39.958Z,1006.82
2018-12-26T02:41:39.945Z,1006.79
2018-12-26T02:42:39.936Z,1006.9
2018-12-26T02:43:39.924Z,1006.92
2018-12-26T02:44:39.914Z,1006.96
2018-12-26T02:45:39.901Z,1006.96
2018-12-26T02:46:39.891Z,1006.98
2018-12-26T02:47:39.892Z,1006.95
2018-12-26T02:48:39.862Z,1006.92
2018-12-26T02:49:39.852Z,1006.97
2018-12-26T02:50:39.849Z,1007.01
2018-12-26T02:51:39.829Z,1007.01
2018-12-26T02:52:39.820Z,1007.04
2018-12-26T02:53:39.805Z,1007.02
2018-12-26T02:54:39.792Z,1006.99
2018-12-26T02:55:39.781Z,1006.99
2018-12-26T02:56:46.302Z,1006.97
2018-12-26T02:57:39.768Z,1006.97
2018-12-26T02:58:39.762Z,1006.97
2018-12-26T02:59:39.737Z,1006.94
2018-12-26T03:00:39.732Z,1006.93
2018-12-26T03:01:39.714Z,1006.9
2018-12-26T03:02:39.705Z,1006.84
2018-12-26T03:03:39.693Z,1006.82
2018-12-26T03:04:39.692Z,1006.78
2018-12-26T03:05:39.668Z,1006.74
2018-12-26T03:06:39.660Z,1006.74
2018-12-26T03:07:39.698Z,1006.69
2018-12-26T03:08:39.637Z,1006.69
2018-12-26T03:09:39.630Z,1006.76
2018-12-26T03:10:39.613Z,1006.8
2018-12-26T03:11:39.601Z,1006.81
2018-12-26T03:12:39.589Z,1006.84
2018-12-26T03:13:39.585Z,1006.85
2018-12-26T03:14:39.570Z,1006.78
2018-12-26T03:15:39.560Z,1006.73
2018-12-26T03:16:39.550Z,1006.71
2018-12-26T03:17:39.534Z,1006.76
2018-12-26T03:18:39.530Z,1006.7
2018-12-26T03:19:39.509Z,1006.74
2018-12-26T03:20:39.505Z,1006.72
2018-12-26T03:21:39.487Z,1006.71
2018-12-26T03:22:42.928Z,1006.74
2018-12-26T03:23:39.463Z,1006.71
2018-12-26T03:24:39.462Z,1006.7
2018-12-26T03:25:39.451Z,1006.67
2018-12-26T03:26:39.430Z,1006.69
2018-12-26T03:27:39.420Z,1006.63
2018-12-26T03:28:39.406Z,1006.66
2018-12-26T03:29:39.446Z,1006.69
2018-12-26T03:30:39.387Z,1006.72
2018-12-26T03:31:39.375Z,1006.66
2018-12-26T03:32:39.363Z,1006.67
2018-12-26T03:33:39.353Z,1006.67
2018-12-26T03:34:39.341Z,1006.74
2018-12-26T03:35:39.342Z,1006.69
2018-12-26T03:36:39.319Z,1006.62
2018-12-26T03:37:39.306Z,1006.6
2018-12-26T03:38:39.303Z,1006.63
2018-12-26T03:39:39.300Z,1006.66
2018-12-26T03:40:39.274Z,1006.65
2018-12-26T03:41:39.268Z,1006.66
2018-12-26T03:42:39.252Z,1006.68
2018-12-26T03:43:39.244Z,1006.66
2018-12-26T03:44:39.236Z,1006.67
2018-12-26T03:45:39.217Z,1006.71
2018-12-26T03:46:39.209Z,1006.72
2018-12-26T03:47:39.197Z,1006.73
2018-12-26T03:48:39.192Z,1006.73
2018-12-26T03:49:39.176Z,1006.73
2018-12-26T03:50:43.097Z,1006.67
2018-12-26T03:51:39.154Z,1006.71
2018-12-26T03:52:39.154Z,1006.7
2018-12-26T03:53:39.133Z,1006.68
2018-12-26T03:54:39.118Z,1006.66
2018-12-26T03:55:39.111Z,1006.62
2018-12-26T03:56:39.097Z,1006.55
2018-12-26T03:57:39.086Z,1006.49
2018-12-26T03:58:39.083Z,1006.48
2018-12-26T03:59:39.064Z,1006.45
2018-12-26T04:00:39.053Z,1006.54
2018-12-26T04:01:39.042Z,1006.53
2018-12-26T04:02:39.029Z,1006.54
2018-12-26T04:03:39.819Z,1006.55
2018-12-26T04:04:39.010Z,1006.54
2018-12-26T04:05:38.996Z,1006.58
2018-12-26T04:06:38.995Z,1006.55
2018-12-26T04:07:38.990Z,1006.57
2018-12-26T04:08:38.978Z,1006.6
2018-12-26T04:09:38.955Z,1006.58
2018-12-26T04:10:38.954Z,1006.58
2018-12-26T04:11:38.947Z,1006.59
2018-12-26T04:12:38.935Z,1006.61
2018-12-26T04:13:38.914Z,1006.63
2018-12-26T04:14:38.929Z,1006.61
2018-12-26T04:15:38.897Z,1006.6
2018-12-26T04:16:38.901Z,1006.55
2018-12-26T04:17:38.890Z,1006.53
2018-12-26T04:18:38.873Z,1006.5
2018-12-26T04:19:38.863Z,1006.49
2018-12-26T04:20:38.843Z,1006.46
2018-12-26T04:21:38.841Z,1006.44
2018-12-26T04:22:38.816Z,1006.43
2018-12-26T04:23:38.820Z,1006.45
2018-12-26T04:24:38.804Z,1006.46
2018-12-26T04:25:38.783Z,1006.51
2018-12-26T04:26:38.788Z,1006.46
2018-12-26T04:27:38.771Z,1006.51
2018-12-26T04:28:38.751Z,1006.53
2018-12-26T04:29:38.738Z,1006.52
2018-12-26T04:30:38.747Z,1006.53
2018-12-26T04:31:38.725Z,1006.56
2018-12-26T04:32:38.710Z,1006.54
2018-12-26T04:33:38.698Z,1006.48
2018-12-26T04:34:38.706Z,1006.45
2018-12-26T04:35:38.703Z,1006.47
2018-12-26T04:36:38.660Z,1006.48
2018-12-26T04:37:38.658Z,1006.51
2018-12-26T04:38:38.635Z,1006.52
2018-12-26T04:39:38.628Z,1006.5
2018-12-26T04:40:38.626Z,1006.51
2018-12-26T04:41:38.625Z,1006.48
2018-12-26T04:42:38.590Z,1006.48
2018-12-26T04:43:38.582Z,1006.5
2018-12-26T04:44:38.566Z,1006.52
2018-12-26T04:45:38.554Z,1006.56
2018-12-26T04:46:38.564Z,1006.56
2018-12-26T04:47:38.533Z,1006.56
2018-12-26T04:48:38.524Z,1006.58
2018-12-26T04:49:38.509Z,1006.6
2018-12-26T04:50:38.502Z,1006.61
2018-12-26T04:51:38.490Z,1006.63
2018-12-26T04:52:38.474Z,1006.66
2018-12-26T04:53:38.463Z,1006.67
2018-12-26T04:54:38.453Z,1006.7
2018-12-26T04:55:38.442Z,1006.76
2018-12-26T04:56:38.446Z,1006.7
2018-12-26T04:57:38.423Z,1006.63
2018-12-26T04:58:38.408Z,1006.71
2018-12-26T04:59:38.409Z,1006.7
2018-12-26T05:00:38.388Z,1006.7
2018-12-26T05:01:38.380Z,1006.65
2018-12-26T05:02:38.391Z,1006.69
2018-12-26T05:03:38.355Z,1006.68
2018-12-26T05:04:38.339Z,1006.67
2018-12-26T05:05:38.332Z,1006.66
2018-12-26T05:06:38.319Z,1006.63
2018-12-26T05:07:38.309Z,1006.62
2018-12-26T05:08:38.299Z,1006.59
2018-12-26T05:09:38.287Z,1006.61
2018-12-26T05:10:38.278Z,1006.63
2018-12-26T05:11:38.270Z,1006.64
2018-12-26T05:12:38.257Z,1006.64
2018-12-26T05:13:38.250Z,1006.6
2018-12-26T05:14:38.243Z,1006.61
2018-12-26T05:15:38.218Z,1006.65
2018-12-26T05:16:38.210Z,1006.66
2018-12-26T05:17:38.204Z,1006.67
2018-12-26T05:18:38.196Z,1006.67
2018-12-26T05:19:38.184Z,1006.7
2018-12-26T05:20:38.164Z,1006.7
2018-12-26T05:21:38.153Z,1006.71
2018-12-26T05:22:38.151Z,1006.7
2018-12-26T05:23:38.139Z,1006.75
2018-12-26T05:24:38.120Z,1006.75
2018-12-26T05:25:38.137Z,1006.74
2018-12-26T05:26:38.103Z,1006.75
2018-12-26T05:27:38.088Z,1006.81
2018-12-26T05:28:38.086Z,1006.81
2018-12-26T05:29:38.073Z,1006.84
2018-12-26T05:30:38.061Z,1006.84
2018-12-26T05:31:38.044Z,1006.83
2018-12-26T05:32:38.028Z,1006.84
2018-12-26T05:33:38.015Z,1006.87
2018-12-26T05:34:38.008Z,1006.88
2018-12-26T05:35:38.002Z,1006.87
2018-12-26T05:36:37.985Z,1006.84
2018-12-26T05:37:37.973Z,1006.87
2018-12-26T05:38:37.962Z,1006.89
2018-12-26T05:39:37.950Z,1006.89
2018-12-26T05:40:37.954Z,1006.89
2018-12-26T05:41:37.926Z,1006.94
2018-12-26T05:42:37.915Z,1006.95
2018-12-26T05:43:37.908Z,1006.97
2018-12-26T05:44:37.892Z,1006.98
2018-12-26T05:45:37.878Z,1007.01
2018-12-26T05:46:37.869Z,1006.98
2018-12-26T05:47:37.859Z,1006.95
2018-12-26T05:48:37.846Z,1006.94
2018-12-26T05:49:37.837Z,1006.95
2018-12-26T05:50:37.822Z,1006.96
2018-12-26T05:51:37.822Z,1006.96
2018-12-26T05:52:37.798Z,1007.03
2018-12-26T05:53:37.789Z,1007.09
2018-12-26T05:54:37.781Z,1007.08
2018-12-26T05:55:37.767Z,1007.08
2018-12-26T05:56:37.754Z,1007.09
2018-12-26T05:57:42.668Z,1007.18
2018-12-26T05:58:37.736Z,1007.11
2018-12-26T05:59:37.721Z,1007.08
2018-12-26T06:00:37.708Z,1007.07
2018-12-26T06:01:37.699Z,1007.02
2018-12-26T06:02:37.703Z,1007.02
2018-12-26T06:03:37.678Z,1007.02
2018-12-26T06:04:37.669Z,1007.03
2018-12-26T06:05:37.654Z,1007.03
2018-12-26T06:06:37.653Z,1007.03
2018-12-26T06:07:37.630Z,1007.03
2018-12-26T06:08:37.618Z,1007.04
2018-12-26T06:09:37.612Z,1007.03
2018-12-26T06:10:37.599Z,1007.06
2018-12-26T06:11:37.596Z,1007
2018-12-26T06:12:37.577Z,1006.99
2018-12-26T06:13:37.582Z,1007
2018-12-26T06:14:37.553Z,1007
2018-12-26T06:15:37.540Z,1007.05
2018-12-26T06:16:37.535Z,1007.06
2018-12-26T06:17:37.526Z,1007.11
2018-12-26T06:18:37.514Z,1007.09
2018-12-26T06:19:37.510Z,1007.14
2018-12-26T06:20:37.483Z,1007.15
2018-12-26T06:21:37.471Z,1007.2
2018-12-26T06:22:37.469Z,1007.25
2018-12-26T06:23:37.457Z,1007.3
2018-12-26T06:24:37.437Z,1007.26
2018-12-26T06:25:40.679Z,1007.31
2018-12-26T06:26:37.416Z,1007.37
2018-12-26T06:27:37.432Z,1007.35
2018-12-26T06:28:37.393Z,1007.34
2018-12-26T06:29:37.381Z,1007.32
2018-12-26T06:30:37.370Z,1007.29
2018-12-26T06:31:37.358Z,1007.31
2018-12-26T06:32:37.349Z,1007.3
2018-12-26T06:33:37.336Z,1007.3
2018-12-26T06:34:37.326Z,1007.27
2018-12-26T06:35:37.314Z,1007.28
2018-12-26T06:36:37.305Z,1007.26
2018-12-26T06:37:37.305Z,1007.25
2018-12-26T06:38:37.287Z,1007.24
2018-12-26T06:39:37.271Z,1007.25
2018-12-26T06:40:37.256Z,1007.21
2018-12-26T06:41:37.256Z,1007.25
2018-12-26T06:42:37.254Z,1007.26
2018-12-26T06:43:37.230Z,1007.25
2018-12-26T06:44:37.213Z,1007.28
2018-12-26T06:45:37.199Z,1007.33
2018-12-26T06:46:37.189Z,1007.33
2018-12-26T06:47:37.181Z,1007.32
2018-12-26T06:48:37.164Z,1007.38
2018-12-26T06:49:37.151Z,1007.37
2018-12-26T06:50:37.137Z,1007.4
2018-12-26T06:51:37.125Z,1007.41
2018-12-26T06:52:37.116Z,1007.39
2018-12-26T06:53:37.107Z,1007.4
2018-12-26T06:54:37.091Z,1007.42
2018-12-26T06:55:37.078Z,1007.41
2018-12-26T06:56:37.068Z,1007.4
2018-12-26T06:57:37.064Z,1007.44
2018-12-26T06:58:37.044Z,1007.45
2018-12-26T06:59:37.034Z,1007.46
2018-12-26T07:00:37.026Z,1007.44
2018-12-26T07:01:37.010Z,1007.4
2018-12-26T07:02:36.999Z,1007.43
2018-12-26T07:03:36.986Z,1007.4
2018-12-26T07:04:36.975Z,1007.39
2018-12-26T07:05:36.969Z,1007.37
2018-12-26T07:06:36.957Z,1007.38
2018-12-26T07:07:36.941Z,1007.41
2018-12-26T07:08:36.927Z,1007.4
2018-12-26T07:09:36.914Z,1007.44
2018-12-26T07:10:36.916Z,1007.37
2018-12-26T07:11:36.942Z,1007.4
2018-12-26T07:12:36.884Z,1007.35
2018-12-26T07:13:36.874Z,1007.36
2018-12-26T07:14:36.860Z,1007.37
2018-12-26T07:15:36.853Z,1007.33
2018-12-26T07:16:36.834Z,1007.36
2018-12-26T07:17:36.856Z,1007.35
2018-12-26T07:18:36.818Z,1007.37
2018-12-26T07:19:36.808Z,1007.37
2018-12-26T07:20:36.786Z,1007.37
2018-12-26T07:21:36.784Z,1007.36
2018-12-26T07:22:36.763Z,1007.38
2018-12-26T07:23:36.752Z,1007.39
2018-12-26T07:24:36.739Z,1007.39
2018-12-26T07:25:36.728Z,1007.36
2018-12-26T07:26:37.969Z,1007.4
2018-12-26T07:27:36.708Z,1007.42
2018-12-26T07:28:36.708Z,1007.44
2018-12-26T07:29:36.678Z,1007.46
2018-12-26T07:30:36.670Z,1007.47
2018-12-26T07:31:36.658Z,1007.48
2018-12-26T07:32:36.645Z,1007.44
2018-12-26T07:33:36.643Z,1007.48
2018-12-26T07:34:42.097Z,1007.5
2018-12-26T07:35:36.609Z,1007.5
2018-12-26T07:36:36.597Z,1007.51
2018-12-26T07:37:36.591Z,1007.56
2018-12-26T07:38:36.574Z,1007.57
2018-12-26T07:39:36.559Z,1007.57
2018-12-26T07:40:36.546Z,1007.59
2018-12-26T07:41:36.538Z,1007.53
2018-12-26T07:42:36.523Z,1007.54
2018-12-26T07:43:36.510Z,1007.58
2018-12-26T07:44:36.497Z,1007.56
2018-12-26T07:45:36.494Z,1007.58
2018-12-26T07:46:36.475Z,1007.59
2018-12-26T07:47:36.468Z,1007.57
2018-12-26T07:48:36.456Z,1007.59
2018-12-26T07:49:36.451Z,1007.54
2018-12-26T07:50:36.434Z,1007.59
2018-12-26T07:51:36.414Z,1007.55
2018-12-26T07:52:36.399Z,1007.55
2018-12-26T07:53:36.389Z,1007.53
2018-12-26T07:54:36.378Z,1007.54
2018-12-26T07:55:36.367Z,1007.53
2018-12-26T07:56:36.354Z,1007.52
2018-12-26T07:57:36.343Z,1007.48
2018-12-26T07:58:36.333Z,1007.43
2018-12-26T07:59:37.615Z,1007.46
2018-12-26T08:00:36.303Z,1007.48
2018-12-26T08:01:36.295Z,1007.44
2018-12-26T08:02:36.280Z,1007.48
2018-12-26T08:03:36.270Z,1007.5
2018-12-26T08:04:36.258Z,1007.5
2018-12-26T08:05:36.246Z,1007.53
2018-12-26T08:06:36.233Z,1007.52
2018-12-26T08:07:36.241Z,1007.53
2018-12-26T08:08:36.210Z,1007.52
2018-12-26T08:09:36.212Z,1007.55
2018-12-26T08:10:36.223Z,1007.59
2018-12-26T08:11:36.179Z,1007.53
2018-12-26T08:12:36.164Z,1007.52
2018-12-26T08:13:36.153Z,1007.54
2018-12-26T08:14:36.138Z,1007.51
2018-12-26T08:15:36.130Z,1007.5
2018-12-26T08:16:36.121Z,1007.55
2018-12-26T08:17:36.104Z,1007.5
2018-12-26T08:18:36.103Z,1007.55
2018-12-26T08:19:36.079Z,1007.49
2018-12-26T08:20:36.071Z,1007.48
2018-12-26T08:21:36.070Z,1007.47
2018-12-26T08:22:36.049Z,1007.47
2018-12-26T08:23:36.038Z,1007.52
2018-12-26T08:24:36.026Z,1007.48
2018-12-26T08:25:36.014Z,1007.48
2018-12-26T08:26:35.999Z,1007.51
2018-12-26T08:27:35.988Z,1007.54
2018-12-26T08:28:35.994Z,1007.55
2018-12-26T08:29:35.977Z,1007.53
2018-12-26T08:30:35.961Z,1007.57
2018-12-26T08:31:35.944Z,1007.58
2018-12-26T08:32:35.929Z,1007.57
2018-12-26T08:33:35.922Z,1007.57
2018-12-26T08:34:37.495Z,1007.58
2018-12-26T08:35:35.910Z,1007.63
2018-12-26T08:36:35.886Z,1007.61
2018-12-26T08:37:35.881Z,1007.66
2018-12-26T08:38:35.864Z,1007.65
2018-12-26T08:39:35.862Z,1007.65
2018-12-26T08:40:35.839Z,1007.69
2018-12-26T08:41:35.825Z,1007.65
2018-12-26T08:42:35.814Z,1007.71
2018-12-26T08:43:37.455Z,1007.67
2018-12-26T08:44:35.812Z,1007.68
2018-12-26T08:45:35.782Z,1007.72
2018-12-26T08:46:35.770Z,1007.73
2018-12-26T08:47:35.755Z,1007.76
2018-12-26T08:48:35.744Z,1007.76
2018-12-26T08:49:35.738Z,1007.75
2018-12-26T08:50:35.722Z,1007.78
2018-12-26T08:51:35.708Z,1007.75
2018-12-26T08:52:35.721Z,1007.74
2018-12-26T08:53:35.685Z,1007.74
2018-12-26T08:54:35.684Z,1007.73
2018-12-26T08:55:35.664Z,1007.76
2018-12-26T08:56:35.650Z,1007.78
2018-12-26T08:57:35.647Z,1007.78
2018-12-26T08:58:35.627Z,1007.79
2018-12-26T08:59:35.623Z,1007.82
2018-12-26T09:00:35.622Z,1007.87
2018-12-26T09:01:35.592Z,1007.84
2018-12-26T09:02:35.587Z,1007.88
2018-12-26T09:03:35.568Z,1007.86
2018-12-26T09:04:35.560Z,1007.86
2018-12-26T09:05:35.549Z,1007.87
2018-12-26T09:06:35.536Z,1007.92
2018-12-26T09:07:35.531Z,1007.94
2018-12-26T09:08:35.511Z,1007.88
2018-12-26T09:09:35.514Z,1007.88
2018-12-26T09:10:35.490Z,1007.88
2018-12-26T09:11:35.477Z,1007.91
2018-12-26T09:12:35.467Z,1007.87
2018-12-26T09:13:35.455Z,1007.86
2018-12-26T09:14:35.444Z,1007.83
2018-12-26T09:15:35.438Z,1007.8
2018-12-26T09:16:35.421Z,1007.81
2018-12-26T09:17:35.411Z,1007.78
2018-12-26T09:18:35.397Z,1007.75
2018-12-26T09:19:35.405Z,1007.7
2018-12-26T09:20:35.377Z,1007.73
2018-12-26T09:21:35.366Z,1007.68
2018-12-26T09:22:35.362Z,1007.69
2018-12-26T09:23:35.345Z,1007.74
2018-12-26T09:24:35.332Z,1007.75
2018-12-26T09:25:35.322Z,1007.71
2018-12-26T09:26:35.311Z,1007.7
2018-12-26T09:27:35.300Z,1007.71
2018-12-26T09:28:43.577Z,1007.67
2018-12-26T09:29:35.277Z,1007.69
2018-12-26T09:30:35.265Z,1007.64
2018-12-26T09:31:35.259Z,1007.67
2018-12-26T09:32:35.249Z,1007.66
2018-12-26T09:33:35.241Z,1007.67
2018-12-26T09:34:35.225Z,1007.69
2018-12-26T09:35:35.221Z,1007.64
2018-12-26T09:36:35.206Z,1007.62
2018-12-26T09:37:35.205Z,1007.57
2018-12-26T09:38:35.193Z,1007.63
2018-12-26T09:39:35.170Z,1007.61
2018-12-26T09:40:35.165Z,1007.68
2018-12-26T09:41:35.147Z,1007.72
2018-12-26T09:42:35.137Z,1007.73
2018-12-26T09:43:35.137Z,1007.76
2018-12-26T09:44:35.109Z,1007.74
2018-12-26T09:45:35.105Z,1007.75
2018-12-26T09:46:35.088Z,1007.77
2018-12-26T09:47:35.104Z,1007.73
2018-12-26T09:48:35.068Z,1007.66
2018-12-26T09:49:35.051Z,1007.64
2018-12-26T09:50:35.041Z,1007.67
2018-12-26T09:51:35.032Z,1007.67
2018-12-26T09:52:35.021Z,1007.66
2018-12-26T09:53:35.008Z,1007.69
2018-12-26T09:54:34.998Z,1007.69
2018-12-26T09:55:34.988Z,1007.71
2018-12-26T09:56:34.976Z,1007.68
2018-12-26T09:57:34.965Z,1007.68
2018-12-26T09:58:34.970Z,1007.66
2018-12-26T09:59:34.945Z,1007.68
2018-12-26T10:00:34.934Z,1007.73
2018-12-26T10:01:34.921Z,1007.73
2018-12-26T10:02:34.909Z,1007.74
2018-12-26T10:03:34.901Z,1007.79
2018-12-26T10:04:34.887Z,1007.78
2018-12-26T10:05:34.875Z,1007.73
2018-12-26T10:06:34.871Z,1007.78
2018-12-26T10:07:36.942Z,1007.79
2018-12-26T10:08:34.844Z,1007.72
2018-12-26T10:09:34.855Z,1007.76
2018-12-26T10:10:34.841Z,1007.79
2018-12-26T10:11:34.878Z,1007.81
2018-12-26T10:12:34.801Z,1007.79
2018-12-26T10:13:34.789Z,1007.76
2018-12-26T10:14:34.782Z,1007.81
2018-12-26T10:15:34.771Z,1007.81
2018-12-26T10:16:34.771Z,1007.82
2018-12-26T10:17:34.748Z,1007.81
2018-12-26T10:18:34.736Z,1007.81
2018-12-26T10:19:34.728Z,1007.81
2018-12-26T10:20:34.718Z,1007.82
2018-12-26T10:21:34.704Z,1007.84
2018-12-26T10:22:34.693Z,1007.81
2018-12-26T10:23:34.681Z,1007.83
2018-12-26T10:24:34.672Z,1007.85
2018-12-26T10:25:34.666Z,1007.83
2018-12-26T10:26:34.650Z,1007.84
2018-12-26T10:27:34.641Z,1007.78
2018-12-26T10:28:34.629Z,1007.8
2018-12-26T10:29:34.618Z,1007.83
2018-12-26T10:30:34.605Z,1007.81
2018-12-26T10:31:34.617Z,1007.75
2018-12-26T10:32:34.587Z,1007.77
2018-12-26T10:33:34.583Z,1007.78
2018-12-26T10:34:34.573Z,1007.81
2018-12-26T10:35:34.572Z,1007.77
2018-12-26T10:36:34.547Z,1007.82
2018-12-26T10:37:34.570Z,1007.78
2018-12-26T10:38:34.611Z,1007.78
2018-12-26T10:39:34.520Z,1007.77
2018-12-26T10:40:34.539Z,1007.77
2018-12-26T10:41:34.492Z,1007.76
2018-12-26T10:42:34.495Z,1007.75
2018-12-26T10:43:34.477Z,1007.71
2018-12-26T10:44:34.463Z,1007.68
2018-12-26T10:45:34.551Z,1007.66
2018-12-26T10:46:34.438Z,1007.65
2018-12-26T10:47:34.516Z,1007.6
2018-12-26T10:48:34.419Z,1007.63
2018-12-26T10:49:34.406Z,1007.64
2018-12-26T10:50:34.396Z,1007.61
2018-12-26T10:51:34.386Z,1007.61
2018-12-26T10:52:34.373Z,1007.6
2018-12-26T10:53:34.374Z,1007.63
2018-12-26T10:54:34.351Z,1007.54
2018-12-26T10:55:34.339Z,1007.59
2018-12-26T10:56:34.330Z,1007.54
2018-12-26T10:57:34.338Z,1007.5
2018-12-26T10:58:34.321Z,1007.51
2018-12-26T10:59:34.297Z,1007.53
2018-12-26T11:00:36.139Z,1007.48
2018-12-26T11:01:34.275Z,1007.49
2018-12-26T11:02:34.264Z,1007.44
2018-12-26T11:03:34.257Z,1007.44
2018-12-26T11:04:34.258Z,1007.45
2018-12-26T11:05:34.232Z,1007.46
2018-12-26T11:06:34.222Z,1007.42
2018-12-26T11:07:34.212Z,1007.42
2018-12-26T11:08:34.199Z,1007.38
2018-12-26T11:09:34.262Z,1007.38
2018-12-26T11:10:34.179Z,1007.36
2018-12-26T11:11:34.170Z,1007.38
2018-12-26T11:12:34.155Z,1007.37
2018-12-26T11:13:34.147Z,1007.37
2018-12-26T11:14:34.138Z,1007.34
2018-12-26T11:15:34.142Z,1007.28
2018-12-26T11:16:34.116Z,1007.26
2018-12-26T11:17:34.114Z,1007.27
2018-12-26T11:18:34.095Z,1007.21
2018-12-26T11:19:34.087Z,1007.26
2018-12-26T11:20:34.075Z,1007.26
2018-12-26T11:21:34.063Z,1007.21
2018-12-26T11:22:34.057Z,1007.23
2018-12-26T11:23:34.042Z,1007.23
2018-12-26T11:24:34.056Z,1007.2
2018-12-26T11:25:34.021Z,1007.18
2018-12-26T11:26:34.024Z,1007.24
2018-12-26T11:27:34.004Z,1007.27
2018-12-26T11:28:33.994Z,1007.25
2018-12-26T11:29:33.982Z,1007.19
2018-12-26T11:30:33.974Z,1007.16
2018-12-26T11:31:33.965Z,1007.07
2018-12-26T11:32:33.955Z,1007.06
2018-12-26T11:33:33.954Z,1007.06
2018-12-26T11:34:33.943Z,1007.01
2018-12-26T11:35:33.924Z,1007.07
2018-12-26T11:36:33.912Z,1007.08
2018-12-26T11:37:33.907Z,1007.08
2018-12-26T11:38:33.896Z,1007.1
2018-12-26T11:39:33.883Z,1007.07
2018-12-26T11:40:33.873Z,1007.03
2018-12-26T11:41:33.866Z,1007.01
2018-12-26T11:42:33.856Z,1007
2018-12-26T11:43:33.847Z,1006.97
2018-12-26T11:44:33.834Z,1006.91
2018-12-26T11:45:33.833Z,1006.92
2018-12-26T11:46:33.822Z,1006.91
2018-12-26T11:47:33.805Z,1006.9
2018-12-26T11:48:33.807Z,1006.88
2018-12-26T11:49:33.783Z,1006.85
2018-12-26T11:50:33.775Z,1006.86
2018-12-26T11:51:33.765Z,1006.83
2018-12-26T11:52:33.756Z,1006.86
2018-12-26T11:53:33.743Z,1006.75
2018-12-26T11:54:33.733Z,1006.79
2018-12-26T11:55:33.722Z,1006.75
2018-12-26T11:56:33.715Z,1006.74
2018-12-26T11:57:33.701Z,1006.74
2018-12-26T11:58:33.698Z,1006.72
2018-12-26T11:59:33.685Z,1006.73
2018-12-26T12:00:33.675Z,1006.7
2018-12-26T12:01:33.661Z,1006.72
2018-12-26T12:02:33.652Z,1006.72
2018-12-26T12:03:33.644Z,1006.71
2018-12-26T12:04:33.632Z,1006.7
2018-12-26T12:05:33.624Z,1006.61
2018-12-26T12:06:33.621Z,1006.62
2018-12-26T12:07:33.600Z,1006.69
2018-12-26T12:08:33.590Z,1006.73